Time;durP1;ratioP1;P1;durP2;ratioP2;P2;SDS_P1;SDS_P2;PMS_P1;PMS_P2;Temp;Humidity;BMP_temperature;BMP_pressure;BME280_temperature;BME280_humidity;BME280_pressure;Samples;Min_cycle;Max_cycle;Signal;HPM_P1;HPM_P2
2022/01/01 00:00:06;;;;;;;;;25.67;23.67;;;;;14.38;71.03;102051.94;4992476;28;45777;-78
2022/01/01 00:02:35;;;;;;;;;31.67;30.00;;;;;14.38;70.56;102051.94;4993043;28;45721;-81
2022/01/01 00:05:00;;;;;;;;;35.33;28.33;;;;;14.42;70.01;102056.84;4989279;28;45589;-78
2022/01/01 00:07:26;;;;;;;;;32.67;27.67;;;;;14.45;70.80;102055.59;4973146;28;45438;-81
2022/01/01 00:09:52;;;;;;;;;39.00;30.67;;;;;14.50;70.63;102058.56;4974361;28;46569;-79
2022/01/01 00:12:18;;;;;;;;;34.67;28.00;;;;;14.54;70.70;102057.13;4972818;28;45407;-81
2022/01/01 00:14:44;;;;;;;;;38.00;31.33;;;;;14.59;70.18;102053.75;4988348;28;45634;-76
2022/01/01 00:17:09;;;;;;;;;34.33;24.00;;;;;14.63;69.69;102058.69;4973436;28;45372;-82
2022/01/01 00:19:35;;;;;;;;;32.33;30.33;;;;;14.62;69.40;102048.69;4972124;28;46974;-81
2022/01/01 00:22:02;;;;;;;;;32.33;30.67;;;;;14.72;69.74;102064.06;4988090;28;45788;-81
2022/01/01 00:24:27;;;;;;;;;34.00;31.67;;;;;14.71;69.51;102060.44;4973586;28;45411;-82
2022/01/01 00:26:53;;;;;;;;;38.33;30.67;;;;;14.71;69.68;102056.81;4973350;28;45707;-80
2022/01/01 00:29:19;;;;;;;;;45.67;33.67;;;;;14.71;68.87;102054.06;4987687;28;47143;-82
2022/01/01 00:31:44;;;;;;;;;39.00;35.00;;;;;14.71;69.18;102043.84;4973514;28;45836;-81
2022/01/01 00:34:10;;;;;;;;;42.00;34.67;;;;;14.73;68.88;102054.69;4971730;28;45595;-82
2022/01/01 00:36:36;;;;;;;;;40.00;36.00;;;;;14.74;68.98;102040.69;4973933;28;45789;-81
2022/01/01 00:39:02;;;;;;;;;41.67;36.33;;;;;14.80;68.44;102050.06;4971322;28;47993;-81
2022/01/01 00:41:27;;;;;;;;;43.33;38.33;;;;;14.73;68.76;102057.47;4987720;28;45451;-77
2022/01/01 00:43:52;;;;;;;;;36.33;29.67;;;;;14.73;68.40;102052.81;4975704;28;45786;-77
2022/01/01 00:46:18;;;;;;;;;39.33;35.33;;;;;14.75;68.47;102055.38;4973912;28;46410;-76
2022/01/01 00:48:43;;;;;;;;;40.67;35.00;;;;;14.74;68.85;102064.69;4975077;28;45828;-79
2022/01/01 00:51:09;;;;;;;;;43.00;34.67;;;;;14.71;68.31;102059.59;4975496;28;45556;-80
2022/01/01 00:53:34;;;;;;;;;38.33;35.67;;;;;14.70;68.42;102060.63;4975998;28;45806;-81
2022/01/01 00:56:00;;;;;;;;;35.00;31.33;;;;;14.63;69.02;102055.94;4976188;28;45440;-82
2022/01/01 00:58:25;;;;;;;;;39.33;35.67;;;;;14.66;68.99;102062.97;4975850;28;46410;-82
2022/01/01 01:00:51;;;;;;;;;32.00;32.00;;;;;14.68;68.98;102060.00;4974843;28;45432;-80
2022/01/01 01:03:17;;;;;;;;;33.00;32.33;;;;;14.64;68.88;102043.84;4976055;28;46102;-80
2022/01/01 01:05:45;;;;;;;;;36.00;34.00;;;;;14.74;68.84;102048.13;4990343;28;45644;-79
2022/01/01 01:08:13;;;;;;;;;40.33;34.33;;;;;14.74;68.08;102048.97;4995490;28;45483;-80
2022/01/01 01:10:39;;;;;;;;;39.33;34.00;;;;;14.74;68.13;102048.13;4995707;28;45824;-81
2022/01/01 01:13:06;;;;;;;;;47.00;37.33;;;;;14.70;68.28;102036.66;4995593;28;45452;-82
2022/01/01 01:15:32;;;;;;;;;43.67;35.67;;;;;14.62;68.31;102034.88;4978361;28;46621;-80
2022/01/01 01:17:59;;;;;;;;;35.67;33.33;;;;;14.63;68.95;102042.13;4998696;28;45468;-80
2022/01/01 01:20:26;;;;;;;;;48.67;36.00;;;;;14.54;68.07;102025.91;4998357;28;45336;-80
2022/01/01 01:22:51;;;;;;;;;41.33;35.67;;;;;14.47;69.00;102023.94;5003227;28;45809;-81
2022/01/01 01:25:17;;;;;;;;;42.00;35.33;;;;;14.48;69.02;102039.47;5002595;28;46053;-81
2022/01/01 01:27:42;;;;;;;;;40.00;34.00;;;;;14.45;69.13;102034.34;4979752;28;46981;-80
2022/01/01 01:30:14;;;;;;;;;45.67;37.67;;;;;14.53;68.33;102052.66;4979381;28;45440;-81
2022/01/01 01:32:40;;;;;;;;;36.00;33.00;;;;;14.50;68.27;102042.00;4996528;28;45451;-82
2022/01/01 01:35:07;;;;;;;;;46.00;36.67;;;;;14.41;69.09;102033.03;4978027;28;45776;-76
2022/01/01 01:37:33;;;;;;;;;46.67;35.67;;;;;14.41;68.90;102046.84;4995539;28;46891;-80
2022/01/01 01:39:59;;;;;;;;;42.33;36.67;;;;;14.35;69.33;102039.38;4995673;28;45443;-80
2022/01/01 01:42:27;;;;;;;;;31.67;29.00;;;;;14.29;69.44;102041.03;4995362;28;45769;-81
2022/01/01 01:44:54;;;;;;;;;41.33;35.67;;;;;14.26;69.46;102043.34;4977185;28;47189;-81
2022/01/01 01:47:36;;;;;;;;;38.33;36.00;;;;;14.14;69.33;102037.53;4994987;28;46326;-79
2022/01/01 01:50:07;;;;;;;;;38.00;31.00;;;;;14.11;69.84;102041.53;4994539;28;45367;-80
2022/01/01 01:52:36;;;;;;;;;45.00;37.67;;;;;14.06;69.18;102040.47;4996221;28;45872;-81
2022/01/01 01:55:05;;;;;;;;;50.00;38.67;;;;;13.93;69.77;102030.16;4995365;28;45413;-78
2022/01/01 01:57:33;;;;;;;;;43.67;34.67;;;;;13.87;69.97;102031.81;4977417;28;48692;-79
2022/01/01 01:59:58;;;;;;;;;43.33;35.67;;;;;13.82;69.77;102039.84;4996937;28;45500;-79
2022/01/01 02:02:23;;;;;;;;;50.00;38.33;;;;;13.78;70.67;102044.03;4993489;28;45820;-78
2022/01/01 02:04:49;;;;;;;;;49.67;38.67;;;;;13.73;70.03;102041.03;4993516;28;45535;-75
2022/01/01 02:07:14;;;;;;;;;47.33;38.67;;;;;13.60;70.27;102045.34;4993817;28;46942;-77
2022/01/01 02:09:40;;;;;;;;;38.33;35.33;;;;;13.60;71.43;102055.53;4995437;28;45832;-81
2022/01/01 02:12:07;;;;;;;;;47.33;37.00;;;;;13.52;71.48;102056.50;4995448;28;45469;-79
2022/01/01 02:17:23;;;;;;;;;39.00;34.67;;;;;13.44;71.23;102051.13;4995078;28;45435;-81
2022/01/01 02:19:50;;;;;;;;;48.33;34.67;;;;;13.42;71.62;102053.22;4976404;28;45432;-77
2022/01/01 02:22:16;;;;;;;;;40.33;34.00;;;;;13.28;70.74;102030.16;4993658;28;45448;-76
2022/01/01 02:24:41;;;;;;;;;43.67;34.00;;;;;13.36;70.97;102052.09;4986115;28;45701;-76
2022/01/01 02:27:08;;;;;;;;;42.33;36.00;;;;;13.31;71.75;102038.03;4993033;28;45730;-79
2022/01/01 02:29:34;;;;;;;;;39.00;33.67;;;;;13.30;71.43;102036.31;4993841;28;45474;-79
2022/01/01 02:31:59;;;;;;;;;39.67;34.00;;;;;13.28;71.39;102034.78;4994080;28;45555;-81
2022/01/01 02:34:25;;;;;;;;;46.33;35.67;;;;;13.24;71.82;102037.09;4993904;28;45503;-81
2022/01/01 02:36:50;;;;;;;;;40.67;30.67;;;;;13.21;71.77;102030.06;4976326;28;48052;-76
2022/01/01 02:39:19;;;;;;;;;37.33;32.00;;;;;13.18;72.05;102024.13;4993735;28;45590;-76
2022/01/01 02:41:48;;;;;;;;;40.33;33.00;;;;;13.13;71.86;102019.19;4975410;28;45380;-77
2022/01/01 02:44:14;;;;;;;;;41.67;35.33;;;;;13.12;71.93;102019.38;4993456;28;45717;-77
2022/01/01 02:46:40;;;;;;;;;44.00;34.33;;;;;13.00;71.85;102006.09;4992667;28;45657;-77
2022/01/01 02:49:06;;;;;;;;;44.33;34.33;;;;;13.01;71.78;102002.31;4992836;28;45423;-76
2022/01/01 02:51:31;;;;;;;;;36.33;32.33;;;;;12.98;72.70;102026.63;4993086;28;45867;-77
2022/01/01 02:53:57;;;;;;;;;39.00;33.33;;;;;12.89;72.18;102012.13;4992345;28;45448;-78
2022/01/01 02:56:24;;;;;;;;;39.00;33.00;;;;;12.92;72.73;102028.25;4974907;28;45856;-81
2022/01/01 02:58:50;;;;;;;;;41.33;33.33;;;;;12.93;71.61;102029.94;4994172;28;45761;-81
2022/01/01 03:01:15;;;;;;;;;41.67;33.00;;;;;12.87;72.11;102031.59;4995957;28;45705;-82
2022/01/01 03:03:42;;;;;;;;;44.00;34.67;;;;;12.83;72.44;102019.25;4976505;28;45801;-80
2022/01/01 03:06:08;;;;;;;;;36.33;31.33;;;;;12.85;72.71;102030.06;4993309;28;45558;-81
2022/01/01 03:08:33;;;;;;;;;42.67;34.33;;;;;12.76;72.91;102012.81;4993886;28;45706;-81
2022/01/01 03:11:02;;;;;;;;;42.67;32.67;;;;;12.82;72.70;102039.56;4975873;28;45694;-79
2022/01/01 03:13:28;;;;;;;;;35.33;32.67;;;;;12.79;73.02;102026.19;4993880;28;45477;-81
2022/01/01 03:15:53;;;;;;;;;38.00;30.00;;;;;12.80;72.82;102033.41;4992593;28;48639;-81
2022/01/01 03:18:19;;;;;;;;;36.00;31.33;;;;;12.79;72.93;102033.59;4994215;28;45332;-82
2022/01/01 03:20:44;;;;;;;;;31.00;28.33;;;;;12.79;72.92;102039.94;4974617;28;45378;-76
2022/01/01 03:23:10;;;;;;;;;39.33;32.67;;;;;12.73;73.37;102023.38;4992283;28;45850;-76
2022/01/01 03:25:35;;;;;;;;;34.33;31.33;;;;;12.77;72.96;102031.03;4991786;28;47210;-80
2022/01/01 03:28:00;;;;;;;;;30.67;27.00;;;;;12.70;72.94;102025.44;4993869;28;45520;-80
2022/01/01 03:30:26;;;;;;;;;34.00;29.33;;;;;12.72;73.52;102025.25;4996302;28;45613;-82
2022/01/01 03:32:51;;;;;;;;;29.33;27.33;;;;;12.78;73.00;102032.72;4993336;28;45961;-76
2022/01/01 03:35:16;;;;;;;;;30.33;26.67;;;;;12.81;73.23;102032.34;4993885;28;46418;-76
2022/01/01 03:37:42;;;;;;;;;26.67;25.00;;;;;12.74;73.25;102017.66;4995109;28;45401;-80
2022/01/01 03:40:08;;;;;;;;;35.33;29.67;;;;;12.78;73.22;102027.22;4994785;28;46103;-82
2022/01/01 03:42:33;;;;;;;;;27.33;26.00;;;;;12.81;72.94;102024.09;5001801;28;45393;-80
2022/01/01 03:44:59;;;;;;;;;28.00;27.33;;;;;12.80;72.99;102024.28;5001732;28;45469;-81
2022/01/01 03:47:24;;;;;;;;;32.67;30.00;;;;;12.74;73.05;102003.91;4983158;28;45683;-80
2022/01/01 03:49:50;;;;;;;;;37.67;29.00;;;;;12.76;73.46;102012.81;5002151;28;45485;-78
2022/01/01 03:52:15;;;;;;;;;31.67;28.67;;;;;12.79;72.49;102020.69;4996217;28;45535;-81
2022/01/01 03:54:41;;;;;;;;;36.00;31.33;;;;;12.76;73.18;102020.22;4994911;28;45839;-81
2022/01/01 03:57:07;;;;;;;;;36.00;31.67;;;;;12.74;72.68;102019.53;4995680;28;45763;-82
2022/01/01 03:59:32;;;;;;;;;39.67;31.67;;;;;12.74;73.01;102031.44;4995396;28;45447;-82
2022/01/01 04:01:58;;;;;;;;;35.00;32.00;;;;;12.71;73.17;102032.66;4977021;28;45951;-80
2022/01/01 04:04:25;;;;;;;;;40.00;33.67;;;;;12.67;72.85;102022.22;4972580;28;47552;-81
2022/01/01 04:06:51;;;;;;;;;39.00;32.33;;;;;12.67;72.43;102020.31;4973944;28;45383;-81
2022/01/01 04:09:17;;;;;;;;;37.67;33.00;;;;;12.67;72.93;102016.72;4989033;28;45421;-82
2022/01/01 04:11:43;;;;;;;;;44.33;36.00;;;;;12.53;72.69;102007.44;4974126;28;45723;-80
2022/01/01 04:14:14;;;;;;;;;38.00;32.33;;;;;12.58;72.89;102018.72;4974067;28;45463;-80
2022/01/01 04:16:40;;;;;;;;;40.00;31.33;;;;;12.51;73.21;102004.88;4987360;28;45461;-80
2022/01/01 04:19:06;;;;;;;;;38.33;32.33;;;;;12.50;72.93;102013.28;4974095;28;45652;-80
2022/01/01 04:21:31;;;;;;;;;26.33;25.33;;;;;12.45;73.48;102011.13;4989549;28;46061;-80
2022/01/01 04:23:57;;;;;;;;;40.33;30.67;;;;;12.37;73.38;102000.22;4974281;28;45664;-81
2022/01/01 04:26:24;;;;;;;;;33.33;28.67;;;;;12.38;73.55;102003.81;4974396;28;45407;-81
2022/01/01 04:28:49;;;;;;;;;33.33;31.00;;;;;12.35;73.64;102003.16;4973855;28;45478;-80
2022/01/01 04:31:15;;;;;;;;;29.67;26.33;;;;;12.35;73.84;101999.56;4974992;28;45717;-81
2022/01/01 04:33:41;;;;;;;;;33.33;29.00;;;;;12.34;73.34;101995.09;4980156;28;47390;-80
2022/01/01 04:36:07;;;;;;;;;29.33;28.67;;;;;12.34;73.52;101992.34;4982474;28;45662;-80
2022/01/01 04:38:40;;;;;;;;;25.33;24.67;;;;;12.32;73.62;101997.19;4984640;28;44702;-78
2022/01/01 04:41:15;;;;;;;;;32.67;27.33;;;;;12.29;73.60;102001.19;4984847;28;45491;-80
2022/01/01 04:43:41;;;;;;;;;34.67;31.00;;;;;12.30;74.08;101997.38;4984447;28;45403;-82
2022/01/01 04:46:07;;;;;;;;;30.33;27.67;;;;;12.32;73.51;102008.19;4984051;28;45519;-80
2022/01/01 04:48:37;;;;;;;;;28.67;24.67;;;;;12.31;73.36;102007.34;4984452;28;45593;-80
2022/01/01 04:51:06;;;;;;;;;34.00;31.33;;;;;12.28;73.64;102002.22;4984568;28;46604;-81
2022/01/01 04:53:31;;;;;;;;;39.67;33.00;;;;;12.25;73.82;102004.50;4982850;28;46280;-83
2022/01/01 04:55:56;;;;;;;;;34.00;31.00;;;;;12.26;73.82;102001.56;4985600;28;45474;-81
2022/01/01 04:58:22;;;;;;;;;36.67;33.00;;;;;12.17;73.66;101992.53;4985576;28;45785;-82
2022/01/01 05:00:47;;;;;;;;;32.00;28.00;;;;;12.27;73.81;102018.91;4984787;28;45526;-80
2022/01/01 05:03:13;;;;;;;;;35.33;30.00;;;;;12.22;73.69;102002.97;4986212;28;45350;-75
2022/01/01 05:05:39;;;;;;;;;40.00;30.67;;;;;12.17;73.85;102011.78;4995728;28;45685;-77
2022/01/01 05:08:04;;;;;;;;;42.00;32.33;;;;;12.16;73.94;102012.81;5000743;28;45361;-78
2022/01/01 05:10:30;;;;;;;;;34.00;32.00;;;;;12.19;73.96;102026.19;4999116;28;45483;-76
2022/01/01 05:12:55;;;;;;;;;33.00;28.67;;;;;12.19;73.62;102017.09;5001682;28;45674;-79
2022/01/01 05:15:20;;;;;;;;;33.33;27.67;;;;;12.16;73.03;102021.06;5003842;28;45655;-77
2022/01/01 05:17:46;;;;;;;;;33.00;30.00;;;;;12.18;73.33;102030.00;4982120;28;45775;-77
2022/01/01 05:20:12;;;;;;;;;33.00;29.33;;;;;12.19;73.28;102028.09;4998925;28;45326;-76
2022/01/01 05:22:37;;;;;;;;;29.67;27.00;;;;;12.16;73.21;102022.97;4982592;28;47073;-78
2022/01/01 05:25:05;;;;;;;;;27.00;27.00;;;;;12.13;73.13;102029.69;4993713;28;45371;-77
2022/01/01 05:27:34;;;;;;;;;30.67;26.67;;;;;12.07;73.04;102013.13;4996613;28;45512;-77
2022/01/01 05:30:00;;;;;;;;;17.33;14.33;;;;;12.14;73.31;102019.53;5000963;28;45524;-75
2022/01/01 05:32:26;;;;;;;;;33.33;29.33;;;;;12.10;73.35;102015.50;4993713;28;45480;-77
2022/01/01 05:34:51;;;;;;;;;27.00;25.33;;;;;12.09;73.75;102006.38;4994956;28;45422;-77
2022/01/01 05:37:17;;;;;;;;;25.33;22.00;;;;;12.08;73.46;102014.81;4998323;28;45980;-76
2022/01/01 05:39:42;;;;;;;;;22.67;20.67;;;;;12.00;73.51;101993.75;4994324;28;45966;-76
2022/01/01 05:42:08;;;;;;;;;28.00;22.33;;;;;12.04;73.34;102000.59;4998728;28;45757;-75
2022/01/01 05:44:33;;;;;;;;;30.67;26.00;;;;;11.98;73.63;101996.69;4985904;28;46732;-73
2022/01/01 05:46:59;;;;;;;;;22.67;21.00;;;;;11.94;73.08;101998.09;4997786;28;45632;-75
2022/01/01 05:49:24;;;;;;;;;25.00;21.00;;;;;11.94;73.64;102000.84;4988279;28;45478;-82
2022/01/01 05:51:50;;;;;;;;;28.67;26.00;;;;;11.97;73.26;102008.72;5010037;28;46042;-82
2022/01/01 05:54:15;;;;;;;;;28.00;22.67;;;;;11.94;73.27;102006.34;5006613;28;45766;-80
2022/01/01 05:56:41;;;;;;;;;30.00;28.00;;;;;11.95;73.34;102007.22;4992990;28;45535;-79
2022/01/01 05:59:06;;;;;;;;;32.00;27.33;;;;;11.93;73.25;102004.66;5002469;28;45401;-80
2022/01/01 06:01:32;;;;;;;;;35.67;29.67;;;;;11.88;73.16;101993.31;5003842;28;45628;-78
2022/01/01 06:03:57;;;;;;;;;32.33;27.67;;;;;11.91;73.38;102003.09;4989311;28;45410;-77
2022/01/01 06:06:23;;;;;;;;;30.67;28.33;;;;;11.89;73.29;101997.78;5000929;28;45546;-77
2022/01/01 06:08:48;;;;;;;;;27.33;25.00;;;;;11.87;73.49;102001.75;4999382;28;45701;-77
2022/01/01 06:11:13;;;;;;;;;27.67;23.67;;;;;11.82;73.57;101996.81;5001137;28;46108;-77
2022/01/01 06:13:39;;;;;;;;;28.00;25.33;;;;;11.80;73.17;101996.16;4998136;28;45649;-76
2022/01/01 06:16:05;;;;;;;;;28.00;26.33;;;;;11.82;72.61;101997.66;5000902;28;45448;-77
2022/01/01 06:18:30;;;;;;;;;29.00;26.67;;;;;11.81;73.17;102004.22;4982840;28;46055;-76
2022/01/01 06:20:56;;;;;;;;;28.67;24.67;;;;;11.79;73.25;102000.78;4983544;28;45566;-75
2022/01/01 06:23:22;;;;;;;;;35.33;30.33;;;;;11.76;73.05;101998.41;5000013;28;45820;-76
2022/01/01 06:25:47;;;;;;;;;32.67;30.00;;;;;11.73;73.31;102007.03;4996333;28;45483;-76
2022/01/01 06:28:13;;;;;;;;;33.67;28.33;;;;;11.68;73.22;101990.25;5001341;28;45321;-75
2022/01/01 06:30:38;;;;;;;;;36.33;29.67;;;;;11.65;73.39;101987.88;5000019;28;45372;-77
2022/01/01 06:33:15;;;;;;;;;32.67;30.00;;;;;11.60;73.39;101993.06;4999439;28;45779;-76
2022/01/01 06:35:43;;;;;;;;;37.33;29.67;;;;;11.56;73.18;101989.84;4997684;28;45511;-76
2022/01/01 06:38:09;;;;;;;;;34.33;29.33;;;;;11.55;73.22;101995.53;4978902;28;46303;-77
2022/01/01 06:40:36;;;;;;;;;35.67;30.33;;;;;11.51;73.46;101986.78;4996637;28;46312;-79
2022/01/01 06:43:02;;;;;;;;;31.67;29.00;;;;;11.51;73.64;101985.94;4994653;28;45734;-73
2022/01/01 06:45:28;;;;;;;;;30.33;26.33;;;;;11.49;73.24;101991.59;4994040;28;45577;-72
2022/01/01 06:47:53;;;;;;;;;33.67;28.33;;;;;11.42;73.74;101994.25;4991563;28;45849;-72
2022/01/01 06:50:19;;;;;;;;;26.00;25.67;;;;;11.44;73.25;101996.81;4993158;28;45501;-72
2022/01/01 06:52:45;;;;;;;;;34.00;29.33;;;;;11.37;73.70;101985.69;4972024;28;45869;-75
2022/01/01 06:55:12;;;;;;;;;30.67;27.67;;;;;11.40;74.21;101995.47;4975912;28;45475;-74
2022/01/01 06:57:41;;;;;;;;;34.33;29.67;;;;;11.40;73.80;102001.81;4974138;28;45577;-74
2022/01/01 07:00:08;;;;;;;;;30.00;26.33;;;;;11.36;73.69;102000.47;4994146;28;45451;-72
2022/01/01 07:02:38;;;;;;;;;23.67;23.33;;;;;11.31;73.68;101997.41;4993204;28;45819;-74
2022/01/01 07:05:04;;;;;;;;;33.33;26.67;;;;;11.29;73.88;101989.38;4991844;28;46004;-73
2022/01/01 07:07:30;;;;;;;;;29.67;27.67;;;;;11.29;74.00;101988.50;4993755;28;45801;-71
2022/01/01 07:09:55;;;;;;;;;28.00;24.33;;;;;11.27;74.00;101996.06;4993891;28;45849;-73
2022/01/01 07:12:21;;;;;;;;;31.00;26.67;;;;;11.22;73.95;101982.03;4994273;28;45723;-73
2022/01/01 07:14:46;;;;;;;;;32.00;29.00;;;;;11.24;74.10;101993.69;4993290;28;45491;-73
2022/01/01 07:17:12;;;;;;;;;30.33;26.67;;;;;11.19;73.96;101991.50;4994313;28;45548;-73
2022/01/01 07:19:37;;;;;;;;;31.33;27.67;;;;;11.16;73.73;101989.13;4994784;28;46116;-74
2022/01/01 07:22:03;;;;;;;;;32.67;26.67;;;;;11.15;73.97;101986.53;4976612;28;45855;-72
2022/01/01 07:24:28;;;;;;;;;28.00;25.00;;;;;11.13;73.82;102001.31;4995038;28;45581;-74
2022/01/01 07:26:53;;;;;;;;;35.67;28.67;;;;;11.09;74.60;101991.75;4993595;28;45592;-73
2022/01/01 07:29:19;;;;;;;;;26.67;24.00;;;;;11.07;74.41;101999.28;4992590;28;46882;-74
2022/01/01 07:31:44;;;;;;;;;34.33;28.33;;;;;11.09;74.00;102008.22;4992831;28;45384;-73
2022/01/01 07:34:10;;;;;;;;;24.67;23.33;;;;;11.07;73.87;102007.53;4992791;28;45887;-74
2022/01/01 07:36:35;;;;;;;;;29.67;24.67;;;;;11.07;74.04;101999.28;5002378;28;45498;-73
2022/01/01 07:39:02;;;;;;;;;34.67;29.67;;;;;11.07;74.23;102001.19;5004013;28;47002;-74
2022/01/01 07:41:28;;;;;;;;;24.00;24.00;;;;;11.08;73.75;101997.41;5003586;28;45491;-77
2022/01/01 07:43:54;;;;;;;;;28.00;27.00;;;;;11.06;73.84;101992.09;5007973;28;45432;-77
2022/01/01 07:46:22;;;;;;;;;26.33;23.33;;;;;11.06;74.12;101994.84;5008261;28;45284;-78
2022/01/01 07:48:47;;;;;;;;;27.67;26.00;;;;;11.04;74.53;101991.41;5008559;28;46388;-81
2022/01/01 07:51:12;;;;;;;;;21.67;17.33;;;;;11.06;73.91;101991.22;5009405;28;45321;-78
2022/01/01 07:54:00;;;;;;;;;25.33;20.67;;;;;11.07;74.19;101996.53;4996130;28;45729;-79
2022/01/01 07:56:26;;;;;;;;;23.67;22.00;;;;;11.08;73.79;102001.00;5009693;28;47464;-79
2022/01/01 07:58:51;;;;;;;;;25.33;23.67;;;;;11.07;73.32;101998.44;5010187;28;48044;-78
2022/01/01 08:01:17;;;;;;;;;27.00;22.33;;;;;11.15;73.76;102005.75;5016956;28;45797;-77
2022/01/01 08:03:43;;;;;;;;;24.33;19.00;;;;;11.13;73.41;101995.81;4989083;28;45423;-79
2022/01/01 08:06:08;;;;;;;;;22.00;19.67;;;;;11.17;73.36;102000.94;4991055;28;45311;-78
2022/01/01 08:08:34;;;;;;;;;34.33;28.67;;;;;11.20;73.60;102006.09;5001408;28;45360;-78
2022/01/01 08:10:59;;;;;;;;;34.33;26.33;;;;;11.25;73.86;102003.63;5005909;28;45449;-77
2022/01/01 08:13:25;;;;;;;;;43.75;34.50;;;;;11.28;73.54;102000.53;5002526;28;45871;-77
2022/01/01 08:15:52;;;;;;;;;43.33;33.33;;;;;11.29;73.07;101994.00;5002444;28;45698;-78
2022/01/01 08:18:19;;;;;;;;;26.33;21.33;;;;;11.37;73.22;101991.19;4999082;28;46644;-78
2022/01/01 08:20:45;;;;;;;;;27.00;24.67;;;;;11.40;72.91;101992.72;5003976;28;45577;-79
2022/01/01 08:23:11;;;;;;;;;25.33;21.00;;;;;11.35;73.00;101965.81;5001087;28;45981;-74
2022/01/01 08:25:37;;;;;;;;;21.00;19.00;;;;;11.52;72.83;101987.66;5006538;28;46001;-76
2022/01/01 08:28:05;;;;;;;;;23.00;20.33;;;;;11.56;72.72;101994.50;5005316;28;45427;-79
2022/01/01 08:30:31;;;;;;;;;24.67;22.67;;;;;11.57;72.74;101986.06;4994806;28;45527;-77
2022/01/01 08:33:01;;;;;;;;;26.33;23.33;;;;;11.64;72.22;101988.91;5004603;28;45864;-78
2022/01/01 08:35:31;;;;;;;;;27.00;23.67;;;;;11.66;71.94;101979.44;5005314;28;45733;-77
2022/01/01 08:37:57;;;;;;;;;28.67;25.33;;;;;11.69;71.71;101967.25;5004975;28;46388;-77
2022/01/01 08:40:24;;;;;;;;;26.67;25.33;;;;;11.78;71.50;101976.22;5004977;28;45429;-76
2022/01/01 08:42:49;;;;;;;;;20.33;17.33;;;;;11.81;70.94;101982.22;5005621;28;44858;-77
2022/01/01 08:45:15;;;;;;;;;23.33;21.33;;;;;11.84;71.17;101983.72;5006601;28;45380;-78
2022/01/01 08:47:40;;;;;;;;;35.00;30.33;;;;;11.84;70.62;101972.72;4986977;28;47624;-76
2022/01/01 08:50:06;;;;;;;;;18.33;16.67;;;;;11.98;70.38;101987.59;5004867;28;45902;-78
2022/01/01 08:52:32;;;;;;;;;23.33;20.00;;;;;12.12;70.10;101986.75;5002066;28;45830;-78
2022/01/01 08:54:59;;;;;;;;;23.67;20.00;;;;;12.24;70.18;101987.13;5000626;28;45423;-77
2022/01/01 08:57:25;;;;;;;;;22.33;18.33;;;;;12.41;69.38;101985.06;4999503;28;45749;-75
2022/01/01 08:59:51;;;;;;;;;21.67;18.33;;;;;12.62;69.15;101983.41;5006330;28;45399;-78
2022/01/01 09:02:18;;;;;;;;;20.67;18.00;;;;;12.92;68.67;101988.84;5005061;28;46397;-77
2022/01/01 09:04:44;;;;;;;;;15.00;13.67;;;;;13.10;67.46;101988.41;5003017;28;45750;-79
2022/01/01 09:07:09;;;;;;;;;17.67;17.00;;;;;13.20;66.29;101976.03;5001131;28;46607;-79
2022/01/01 09:09:35;;;;;;;;;20.67;17.00;;;;;13.35;66.53;101977.91;5008141;28;45448;-78
2022/01/01 09:12:00;;;;;;;;;18.00;17.00;;;;;13.78;66.02;101969.59;5007808;28;44845;-78
2022/01/01 09:14:27;;;;;;;;;16.00;15.00;;;;;14.03;64.42;101969.16;4999835;28;45534;-74
2022/01/01 09:16:53;;;;;;;;;17.67;17.67;;;;;14.29;63.89;101960.16;4975116;28;46635;-76
2022/01/01 09:19:19;;;;;;;;;16.00;14.67;;;;;14.63;61.88;101951.00;4996175;28;45766;-73
2022/01/01 09:21:45;;;;;;;;;13.00;12.67;;;;;14.91;61.53;101944.53;4994847;28;45650;-73
2022/01/01 09:24:10;;;;;;;;;13.00;13.00;;;;;15.35;60.60;101937.56;4979368;28;46697;-74
2022/01/01 09:26:36;;;;;;;;;18.33;15.67;;;;;15.86;59.77;101929.72;4994350;28;45769;-74
2022/01/01 09:29:02;;;;;;;;;18.67;16.33;;;;;16.18;58.25;101938.16;4995029;28;45590;-73
2022/01/01 09:31:28;;;;;;;;;10.00;10.00;;;;;16.48;57.28;101930.19;4977410;28;45606;-75
2022/01/01 09:33:53;;;;;;;;;20.33;15.33;;;;;16.76;55.95;101938.13;4994164;28;45496;-74
2022/01/01 09:36:18;;;;;;;;;14.00;13.00;;;;;16.91;55.12;101929.56;4994812;28;45784;-73
2022/01/01 09:38:45;;;;;;;;;12.67;12.33;;;;;17.28;55.86;101942.78;4989566;28;45728;-74
2022/01/01 09:41:12;;;;;;;;;13.67;13.67;;;;;17.64;52.64;101933.72;4994029;28;45596;-74
2022/01/01 09:43:38;;;;;;;;;15.67;12.00;;;;;18.08;51.98;101936.50;4977693;28;47152;-75
2022/01/01 09:46:04;;;;;;;;;20.33;15.67;;;;;18.50;51.50;101933.03;4995789;28;45863;-77
2022/01/01 09:48:30;;;;;;;;;12.33;10.33;;;;;18.93;50.37;101936.81;4993241;28;45520;-76
2022/01/01 09:50:59;;;;;;;;;12.00;12.00;;;;;19.31;49.13;101927.22;4994242;28;45868;-74
2022/01/01 09:53:27;;;;;;;;;14.00;11.00;;;;;19.71;48.49;101932.13;4972915;28;45604;-74
2022/01/01 09:55:55;;;;;;;;;14.67;13.00;;;;;20.07;47.45;101930.22;5001550;28;46688;-74
2022/01/01 09:58:34;;;;;;;;;14.00;12.33;;;;;20.35;47.16;101931.38;4976452;28;45441;-74
2022/01/01 10:01:02;;;;;;;;;14.33;12.00;;;;;20.67;46.05;101928.16;5001174;28;45404;-74
2022/01/01 10:03:38;;;;;;;;;13.33;13.33;;;;;20.90;45.59;101922.50;4984147;28;45551;-78
2022/01/01 10:06:06;;;;;;;;;16.33;13.00;;;;;21.15;44.94;101933.28;5002342;28;45517;-77
2022/01/01 10:08:33;;;;;;;;;10.33;9.33;;;;;21.45;43.56;101931.28;5001822;28;46304;-77
2022/01/01 10:10:58;;;;;;;;;10.33;9.67;;;;;21.51;43.12;101938.66;5003820;28;45779;-75
2022/01/01 10:13:33;;;;;;;;;12.33;11.00;;;;;21.47;43.16;101935.50;4997855;28;45396;-74
2022/01/01 10:16:01;;;;;;;;;14.00;12.33;;;;;21.38;43.35;101923.09;4994656;28;46008;-77
2022/01/01 10:18:30;;;;;;;;;14.67;12.33;;;;;21.27;43.23;101924.00;4993917;28;45417;-74
2022/01/01 10:21:05;;;;;;;;;16.00;15.67;;;;;21.20;43.11;101924.16;4993863;28;45813;-74
2022/01/01 10:23:33;;;;;;;;;10.33;10.33;;;;;21.16;43.09;101925.75;4993974;28;46086;-73
2022/01/01 10:29:14;;;;;;;;;10.67;9.33;;;;;21.07;42.80;101930.06;4993430;28;45592;-74
2022/01/01 10:32:01;;;;;;;;;11.00;10.67;;;;;20.92;43.58;101922.25;4973363;28;45741;-72
2022/01/01 10:34:34;;;;;;;;;12.33;11.00;;;;;20.78;42.75;101930.91;4991550;28;46058;-72
2022/01/01 10:37:00;;;;;;;;;6.67;6.33;;;;;20.69;43.86;101917.59;4975164;28;47458;-74
2022/01/01 10:39:28;;;;;;;;;9.33;9.33;;;;;20.76;43.24;101916.38;4981061;28;45582;-73
2022/01/01 10:41:58;;;;;;;;;12.00;10.67;;;;;20.59;43.36;101918.22;4991467;28;45778;-73
2022/01/01 10:44:33;;;;;;;;;9.67;9.67;;;;;20.56;44.04;101915.94;4992899;28;45438;-77
2022/01/01 10:47:04;;;;;;;;;15.00;9.33;;;;;20.37;43.36;101920.84;5000877;28;46003;-77
2022/01/01 10:52:28;;;;;;;;;10.33;10.00;;;;;19.64;44.49;101915.56;5004382;28;45307;-77
2022/01/01 10:54:54;;;;;;;;;12.67;9.67;;;;;19.40;45.16;101917.44;4983913;28;46187;-77
2022/01/01 10:57:25;;;;;;;;;16.33;12.33;;;;;19.42;45.39;101926.41;4975763;28;47037;-76
2022/01/01 11:00:02;;;;;;;;;12.00;12.00;;;;;19.43;45.35;101925.34;5003378;28;45371;-80
2022/01/01 11:02:33;;;;;;;;;11.00;9.33;;;;;19.46;46.09;101919.28;4988478;28;45488;-74
2022/01/01 11:04:58;;;;;;;;;9.67;9.67;;;;;19.40;46.24;101911.88;4977789;28;45467;-75
2022/01/01 11:07:25;;;;;;;;;10.67;9.00;;;;;19.29;45.74;101915.50;4997877;28;45388;-75
2022/01/01 11:09:51;;;;;;;;;14.00;12.00;;;;;19.10;45.85;101921.16;4993139;28;45823;-73
2022/01/01 11:12:20;;;;;;;;;14.33;10.00;;;;;18.88;46.40;101913.31;4986981;28;45759;-73
2022/01/01 11:14:46;;;;;;;;;10.67;10.67;;;;;18.74;46.26;101913.72;4997846;28;45744;-77